Time;durP1;ratioP1;P1;durP2;ratioP2;P2;SDS_P1;SDS_P2;PMS_P1;PMS_P2;Temp;Humidity;BMP_temperature;BMP_pressure;BME280_temperature;BME280_humidity;BME280_pressure;Samples;Min_cycle;Max_cycle;Signal;HPM_P1;HPM_P2
2022/07/11 00:01:39;;;;;;;;;3.00;3.00;;;;;22.08;46.50;101644.59;5076612;27;45393;-59
2022/07/11 00:04:04;;;;;;;;;2.33;2.33;;;;;22.02;46.68;101647.81;5077935;27;45220;-62
2022/07/11 00:06:29;;;;;;;;;4.00;4.00;;;;;21.97;47.21;101650.91;5078219;27;45364;-57
2022/07/11 00:08:55;;;;;;;;;2.00;2.00;;;;;21.94;47.06;101659.31;5079153;27;45235;-60
2022/07/11 00:11:20;;;;;;;;;3.67;3.67;;;;;21.84;47.36;101650.28;5078530;28;45235;-60
2022/07/11 00:13:46;;;;;;;;;3.33;3.33;;;;;21.90;47.33;101654.31;5077724;27;45223;-63
2022/07/11 00:16:12;;;;;;;;;3.33;3.33;;;;;21.89;47.21;101647.19;5077848;27;45234;-62
2022/07/11 00:18:38;;;;;;;;;4.33;4.33;;;;;21.87;47.21;101654.56;5077811;27;45424;-60
2022/07/11 00:21:03;;;;;;;;;4.00;4.00;;;;;21.85;47.32;101657.41;5075841;27;45648;-58
2022/07/11 00:23:29;;;;;;;;;3.50;3.50;;;;;21.81;47.22;101650.53;5077105;27;45318;-58
2022/07/11 00:25:54;;;;;;;;;3.67;3.67;;;;;21.84;47.58;101661.09;5077617;27;45424;-59
2022/07/11 00:28:19;;;;;;;;;6.00;4.00;;;;;21.84;47.61;101661.09;5077432;27;45627;-56
2022/07/11 00:30:45;;;;;;;;;4.67;4.67;;;;;21.79;47.42;101653.38;5077328;27;45476;-60
2022/07/11 00:33:11;;;;;;;;;3.00;3.00;;;;;21.73;47.38;101644.91;5077362;27;45289;-56
2022/07/11 00:35:36;;;;;;;;;2.33;2.33;;;;;21.75;47.36;101657.38;5077298;28;45336;-60
2022/07/11 00:38:02;;;;;;;;;4.00;4.00;;;;;21.70;47.79;101654.19;5077540;27;45579;-60
2022/07/11 00:40:27;;;;;;;;;4.00;4.00;;;;;21.66;47.49;101650.03;5077139;28;47236;-56
2022/07/11 00:42:53;;;;;;;;;3.00;3.00;;;;;21.70;47.71;101651.47;5077299;27;45334;-59
2022/07/11 00:45:18;;;;;;;;;2.33;2.33;;;;;21.63;47.68;101631.34;5077239;27;45585;-63
2022/07/11 00:47:44;;;;;;;;;3.33;3.33;;;;;21.66;47.93;101638.34;5077417;27;45349;-64
2022/07/11 00:50:09;;;;;;;;;3.00;3.00;;;;;21.63;47.80;101642.19;5077176;27;45366;-61
2022/07/11 00:52:35;;;;;;;;;2.67;2.00;;;;;21.64;48.08;101638.47;5076905;27;45229;-61
2022/07/11 00:55:02;;;;;;;;;3.00;3.00;;;;;21.66;47.94;101641.91;5075912;27;45480;-56
2022/07/11 00:57:28;;;;;;;;;2.00;2.00;;;;;21.66;47.87;101636.50;5075968;27;45487;-57
2022/07/11 00:59:53;;;;;;;;;6.00;3.00;;;;;21.60;47.96;101620.75;5076560;27;46344;-56
2022/07/11 01:02:19;;;;;;;;;3.00;3.00;;;;;21.60;47.71;101626.16;5076856;27;45788;-60
2022/07/11 01:04:44;;;;;;;;;3.00;3.00;;;;;21.40;48.26;101602.69;5076955;27;45317;-56
2022/07/11 01:07:10;;;;;;;;;2.67;2.67;;;;;21.48;48.13;101627.22;5058886;28;45636;-56
2022/07/11 01:09:35;;;;;;;;;4.67;3.00;;;;;21.50;48.29;101630.69;5076750;27;45544;-57
2022/07/11 01:12:01;;;;;;;;;3.00;3.00;;;;;21.47;48.07;101628.22;5076802;27;45333;-61
2022/07/11 01:14:26;;;;;;;;;5.33;4.00;;;;;21.43;48.29;101627.63;5077014;27;45244;-57
2022/07/11 01:16:51;;;;;;;;;2.00;2.00;;;;;21.43;48.39;101635.75;5076930;27;45422;-58
2022/07/11 01:19:17;;;;;;;;;3.67;3.67;;;;;21.43;48.37;101630.34;5076559;27;46124;-56
2022/07/11 01:21:48;;;;;;;;;4.00;4.00;;;;;21.42;48.44;101633.19;5076576;27;45440;-57
2022/07/11 01:24:13;;;;;;;;;3.00;3.00;;;;;21.38;48.70;101621.75;5076820;27;45369;-57
2022/07/11 01:26:39;;;;;;;;;5.00;5.00;;;;;21.31;48.60;101614.28;5076592;27;45491;-56
2022/07/11 01:29:08;;;;;;;;;2.33;2.33;;;;;21.29;48.99;101629.78;5076312;27;45294;-62
2022/07/11 01:31:33;;;;;;;;;3.33;3.00;;;;;21.27;48.79;101631.78;5076049;27;45257;-66
2022/07/11 01:33:58;;;;;;;;;4.33;3.00;;;;;21.20;49.27;101617.88;5077164;27;45409;-64
2022/07/11 01:36:24;;;;;;;;;3.33;3.33;;;;;21.23;48.90;101633.00;5076638;27;45686;-64
2022/07/11 01:38:49;;;;;;;;;4.00;4.00;;;;;21.18;49.12;101634.22;5076164;27;45341;-61
2022/07/11 01:41:15;;;;;;;;;3.00;3.00;;;;;21.19;49.37;101638.66;5075787;27;45287;-59
2022/07/11 01:43:40;;;;;;;;;2.00;2.00;;;;;21.13;49.36;101622.94;5076243;27;45322;-59
2022/07/11 01:46:06;;;;;;;;;4.67;3.67;;;;;21.21;49.32;101630.41;5076397;27;45626;-56
2022/07/11 01:48:31;;;;;;;;;3.00;3.00;;;;;21.19;49.13;101638.66;5076269;27;46159;-57
2022/07/11 01:50:57;;;;;;;;;4.00;2.33;;;;;21.20;49.19;101632.25;5076123;27;45281;-59
2022/07/11 01:53:22;;;;;;;;;3.33;3.00;;;;;21.23;49.19;101633.00;5076766;27;45537;-57
2022/07/11 01:55:48;;;;;;;;;3.00;3.00;;;;;21.15;49.31;101623.66;5076316;27;45478;-57
2022/07/11 01:58:13;;;;;;;;;3.33;2.00;;;;;21.13;49.04;101622.94;5075961;27;46161;-61
2022/07/11 02:00:38;;;;;;;;;4.00;3.00;;;;;21.14;49.31;101612.97;5075817;27;45424;-64
2022/07/11 02:03:04;;;;;;;;;3.00;3.00;;;;;21.12;49.37;101626.66;5076098;27;45473;-65
2022/07/11 02:05:29;;;;;;;;;3.00;3.00;;;;;21.06;48.99;101629.84;5076634;27;45577;-65
2022/07/11 02:08:14;;;;;;;;;3.00;3.00;;;;;21.07;49.46;101626.16;5075797;27;45315;-67
2022/07/11 02:10:43;;;;;;;;;4.00;2.67;;;;;21.10;49.21;101628.63;5075899;27;45385;-66
2022/07/11 02:13:10;;;;;;;;;3.00;3.00;;;;;21.07;49.62;101623.44;5075898;27;45221;-63
2022/07/11 02:15:36;;;;;;;;;3.00;3.00;;;;;21.04;49.52;101634.53;5074677;27;45333;-59
2022/07/11 02:18:02;;;;;;;;;2.00;2.00;;;;;21.00;49.78;101627.66;5075912;27;45177;-60
2022/07/11 02:20:27;;;;;;;;;3.00;3.00;;;;;20.97;50.08;101625.22;5075865;27;45256;-62
2022/07/11 02:22:53;;;;;;;;;4.33;3.00;;;;;20.97;49.83;101627.94;5075477;27;45606;-61
2022/07/11 02:25:19;;;;;;;;;3.00;3.00;;;;;20.96;49.86;101628.03;5077448;27;45486;-60
2022/07/11 02:27:45;;;;;;;;;2.00;2.00;;;;;20.94;49.96;101622.75;5079014;27;45580;-62
2022/07/11 02:30:11;;;;;;;;;5.00;3.00;;;;;20.91;49.99;101628.44;5079002;28;45408;-55
2022/07/11 02:32:37;;;;;;;;;2.00;2.00;;;;;20.87;49.97;101617.00;5077591;27;45417;-57
2022/07/11 02:35:04;;;;;;;;;4.00;3.00;;;;;20.89;50.17;101616.88;5079743;27;45242;-59
2022/07/11 02:37:29;;;;;;;;;5.00;2.00;;;;;20.92;49.78;101622.88;5078755;28;46132;-59
2022/07/11 02:39:54;;;;;;;;;4.33;2.00;;;;;20.95;50.22;101627.19;5079066;28;45354;-63
2022/07/11 02:42:20;;;;;;;;;3.67;3.67;;;;;20.93;49.94;101621.03;5079195;27;45260;-61
2022/07/11 02:44:45;;;;;;;;;4.00;4.00;;;;;20.93;49.94;101626.44;5079497;27;45795;-63
2022/07/11 02:47:11;;;;;;;;;2.00;2.00;;;;;20.88;50.10;101621.44;5077666;27;47175;-66
2022/07/11 02:49:37;;;;;;;;;4.00;4.00;;;;;20.84;50.10;101619.13;5079034;27;45257;-57
2022/07/11 02:52:03;;;;;;;;;3.00;3.00;;;;;20.81;50.23;101627.47;5077970;28;45354;-60
2022/07/11 02:54:29;;;;;;;;;3.00;3.00;;;;;20.80;50.19;101623.03;5079176;27;45512;-59
2022/07/11 02:56:54;;;;;;;;;1.33;1.33;;;;;20.75;50.40;101622.59;5077644;27;45442;-58
2022/07/11 02:59:21;;;;;;;;;4.00;3.33;;;;;20.81;50.47;101627.47;5078743;27;45345;-58
2022/07/11 03:01:47;;;;;;;;;3.00;3.00;;;;;20.80;50.45;101628.44;5078985;27;45366;-66
2022/07/11 03:04:12;;;;;;;;;4.00;4.00;;;;;20.74;50.35;101623.56;5078831;27;45622;-58
2022/07/11 03:06:38;;;;;;;;;5.00;4.00;;;;;20.68;50.60;101613.25;5078542;27;46078;-55
2022/07/11 03:09:05;;;;;;;;;2.67;2.67;;;;;20.66;50.76;101615.22;5078996;27;45172;-59
2022/07/11 03:11:31;;;;;;;;;5.00;3.00;;;;;20.66;50.75;101617.94;5078776;27;45333;-63
2022/07/11 03:13:57;;;;;;;;;3.00;3.00;;;;;20.61;51.14;101613.75;5077678;27;45246;-59
2022/07/11 03:16:23;;;;;;;;;3.33;2.00;;;;;20.61;51.01;101612.91;5077054;28;45506;-57
2022/07/11 03:18:48;;;;;;;;;3.00;3.00;;;;;20.58;50.76;101605.91;5078324;27;45267;-61
2022/07/11 03:21:13;;;;;;;;;2.00;2.00;;;;;20.51;51.11;101610.09;5079089;27;45379;-58
2022/07/11 03:23:39;;;;;;;;;3.33;2.00;;;;;20.53;51.19;101612.66;5079440;27;45425;-59
2022/07/11 03:26:04;;;;;;;;;3.00;3.00;;;;;20.52;51.18;101622.63;5078638;27;45455;-59
2022/07/11 03:28:30;;;;;;;;;4.00;4.00;;;;;20.49;51.38;101628.28;5078087;27;45348;-60
2022/07/11 03:30:55;;;;;;;;;2.67;2.67;;;;;20.48;51.27;101614.91;5078441;27;45380;-56
2022/07/11 03:33:21;;;;;;;;;7.00;3.00;;;;;20.48;51.08;101618.47;5078617;27;45470;-64
2022/07/11 03:35:47;;;;;;;;;2.00;2.00;;;;;20.47;51.51;101614.03;5077984;27;46317;-63
2022/07/11 03:38:17;;;;;;;;;3.00;3.00;;;;;20.48;51.27;101621.16;5077856;27;45451;-65
2022/07/11 03:40:42;;;;;;;;;4.00;3.00;;;;;20.41;51.24;101609.09;5078021;27;45251;-63
2022/07/11 03:43:08;;;;;;;;;4.67;3.33;;;;;20.51;51.29;101620.91;5078596;28;45897;-58
2022/07/11 03:45:34;;;;;;;;;2.67;2.67;;;;;20.50;51.01;101629.13;5077912;27;46122;-58
2022/07/11 03:47:59;;;;;;;;;2.00;2.00;;;;;20.51;51.09;101620.03;5077999;27;45531;-59
2022/07/11 03:50:25;;;;;;;;;5.67;2.00;;;;;20.48;51.20;101614.91;5094006;27;45464;-59
2022/07/11 03:52:50;;;;;;;;;1.33;1.33;;;;;20.42;51.39;101621.63;5078089;27;45424;-57
2022/07/11 03:55:15;;;;;;;;;2.00;2.00;;;;;20.33;51.45;101616.97;5077742;27;45373;-59
2022/07/11 03:57:41;;;;;;;;;2.00;2.00;;;;;20.26;51.41;101608.47;5077704;27;45370;-62
2022/07/11 04:00:08;;;;;;;;;3.33;2.00;;;;;20.20;51.80;101610.84;5078181;27;45444;-64
2022/07/11 04:02:34;;;;;;;;;3.00;3.00;;;;;20.26;51.60;101615.72;5077848;27;45226;-62
2022/07/11 04:05:00;;;;;;;;;4.00;3.00;;;;;20.24;51.81;101612.31;5077659;27;45394;-59
2022/07/11 04:07:28;;;;;;;;;3.00;3.00;;;;;20.27;51.89;101623.72;5077376;27;45308;-66
2022/07/11 04:09:53;;;;;;;;;3.00;3.00;;;;;20.20;51.70;101605.44;5077961;27;45476;-63
2022/07/11 04:12:19;;;;;;;;;2.33;2.33;;;;;20.23;51.91;101613.28;5078072;27;45354;-58
2022/07/11 04:14:44;;;;;;;;;2.00;2.00;;;;;20.26;51.82;101610.34;5077803;27;45443;-62
2022/07/11 04:17:10;;;;;;;;;4.00;3.00;;;;;20.23;51.94;101616.00;5077538;27;45342;-62
2022/07/11 04:19:35;;;;;;;;;3.00;3.00;;;;;20.16;51.94;101615.59;5077847;27;45302;-62
2022/07/11 04:22:01;;;;;;;;;3.33;3.00;;;;;20.12;52.12;101606.03;5077828;27;45619;-57
2022/07/11 04:24:26;;;;;;;;;3.00;3.00;;;;;20.18;51.74;101616.38;5076173;28;45464;-58
2022/07/11 04:26:51;;;;;;;;;2.33;2.33;;;;;20.12;51.92;101613.28;5077468;28;45483;-59
2022/07/11 04:29:17;;;;;;;;;4.00;2.33;;;;;20.10;52.31;101609.84;5093014;27;45662;-58
2022/07/11 04:31:43;;;;;;;;;3.00;2.00;;;;;20.13;52.08;101625.81;5077326;28;45584;-57
2022/07/11 04:34:08;;;;;;;;;3.00;3.00;;;;;20.14;52.29;101627.53;5075868;28;46668;-59
2022/07/11 04:36:33;;;;;;;;;2.33;2.00;;;;;20.10;52.73;101634.16;5077288;27;45437;-57
2022/07/11 04:38:58;;;;;;;;;4.00;3.67;;;;;20.11;52.51;101635.88;5075909;28;45333;-60
2022/07/11 04:41:24;;;;;;;;;2.67;2.67;;;;;20.13;52.57;101642.88;5077137;27;45600;-56
2022/07/11 04:43:49;;;;;;;;;2.33;2.33;;;;;20.12;52.34;101635.75;5058937;28;46905;-62
2022/07/11 04:46:15;;;;;;;;;3.00;3.00;;;;;20.17;52.48;101648.88;5077084;27;45358;-56
2022/07/11 04:48:40;;;;;;;;;5.00;5.00;;;;;20.19;52.53;101649.63;5076855;27;45258;-62
2022/07/11 04:51:06;;;;;;;;;7.00;6.00;;;;;20.17;52.39;101641.63;5077439;27;45667;-63
2022/07/11 04:53:32;;;;;;;;;4.00;4.00;;;;;20.20;52.53;101640.56;5077002;27;45249;-65
2022/07/11 04:55:58;;;;;;;;;9.67;8.00;;;;;20.21;52.50;101640.41;5077217;27;45308;-60
2022/07/11 04:58:23;;;;;;;;;9.67;9.00;;;;;20.17;52.80;101635.38;5075528;28;45456;-60
2022/07/11 05:00:49;;;;;;;;;7.00;7.00;;;;;20.22;52.48;101647.53;5077168;27;45251;-57
2022/07/11 05:03:15;;;;;;;;;9.33;7.33;;;;;20.20;52.86;101649.50;5076675;27;45435;-61
2022/07/11 05:05:40;;;;;;;;;8.33;8.33;;;;;20.19;53.02;101646.94;5076582;27;45474;-58
2022/07/11 05:08:06;;;;;;;;;9.67;8.33;;;;;20.21;52.94;101645.81;5075404;28;45381;-60
2022/07/11 05:10:33;;;;;;;;;10.00;7.00;;;;;20.21;52.62;101642.25;5076824;27;45450;-60
2022/07/11 05:12:59;;;;;;;;;10.00;6.33;;;;;20.21;52.97;101650.38;5075026;27;46241;-62
2022/07/11 05:15:24;;;;;;;;;6.67;6.33;;;;;20.20;52.90;101654.91;5076653;27;45340;-63
2022/07/11 05:17:50;;;;;;;;;8.67;7.00;;;;;20.24;52.77;101655.53;5076400;28;45421;-57
2022/07/11 05:20:15;;;;;;;;;11.67;10.00;;;;;20.23;52.92;101656.50;5076695;27;45240;-59
2022/07/11 05:22:41;;;;;;;;;9.00;9.00;;;;;20.20;52.88;101654.06;5076498;27;45310;-56
2022/07/11 05:25:07;;;;;;;;;10.33;9.00;;;;;20.25;52.92;101665.34;5075028;27;45346;-60
2022/07/11 05:27:32;;;;;;;;;6.67;5.67;;;;;20.24;52.82;101671.72;5076481;27;45450;-62
2022/07/11 05:29:57;;;;;;;;;8.33;8.33;;;;;20.27;52.72;101666.06;5076404;27;45547;-64
2022/07/11 05:32:23;;;;;;;;;6.67;6.67;;;;;20.32;52.62;101670.16;5075933;27;45366;-61
2022/07/11 05:34:48;;;;;;;;;6.00;6.00;;;;;20.35;52.62;101662.78;5076223;27;45473;-62
2022/07/11 05:37:14;;;;;;;;;9.00;6.00;;;;;20.39;52.56;101673.19;5076854;27;45474;-58
2022/07/11 05:39:39;;;;;;;;;9.00;9.00;;;;;20.41;52.51;101675.78;5076766;27;45661;-57
2022/07/11 05:42:05;;;;;;;;;9.33;8.00;;;;;20.42;52.41;101678.38;5075985;27;45266;-61
2022/07/11 05:44:30;;;;;;;;;5.67;5.67;;;;;20.46;52.51;101666.38;5075848;27;45373;-58
2022/07/11 05:47:03;;;;;;;;;6.67;6.00;;;;;20.47;52.45;101667.22;5075978;27;45394;-57
2022/07/11 05:49:31;;;;;;;;;7.33;6.33;;;;;20.49;52.37;101666.13;5074855;27;45730;-59
2022/07/11 05:51:56;;;;;;;;;6.00;6.00;;;;;20.46;52.67;101663.66;5075789;27;45457;-57
2022/07/11 05:54:22;;;;;;;;;4.33;4.33;;;;;20.48;52.47;101659.00;5075930;27;45416;-59
2022/07/11 05:56:47;;;;;;;;;4.67;4.67;;;;;20.53;52.44;101662.16;5076281;27;45412;-58
2022/07/11 05:59:13;;;;;;;;;15.00;13.33;;;;;20.61;52.33;101665.13;5076702;27;45515;-57
2022/07/11 06:01:39;;;;;;;;;4.33;4.33;;;;;20.64;52.25;101660.44;5079193;27;45400;-59
2022/07/11 06:04:04;;;;;;;;;3.33;3.33;;;;;20.67;52.00;101665.59;5079522;27;45210;-58
2022/07/11 06:06:30;;;;;;;;;7.67;6.00;;;;;20.73;52.02;101665.09;5079566;27;45715;-57
2022/07/11 06:08:56;;;;;;;;;6.33;5.00;;;;;20.74;52.09;101664.97;5079741;27;45665;-60
2022/07/11 06:11:21;;;;;;;;;8.00;5.33;;;;;20.83;51.97;101663.34;5079391;27;45401;-61
2022/07/11 06:13:49;;;;;;;;;6.33;5.00;;;;;20.87;51.68;101667.53;5079215;27;45342;-59
2022/07/11 06:16:15;;;;;;;;;4.67;4.00;;;;;20.92;51.51;101668.00;5079329;27;45448;-59
2022/07/11 06:18:41;;;;;;;;;5.00;5.00;;;;;20.92;51.93;101668.84;5078534;28;45606;-67
2022/07/11 06:21:07;;;;;;;;;8.00;6.00;;;;;20.95;51.85;101670.44;5079105;27;46132;-67
2022/07/11 06:23:36;;;;;;;;;6.33;5.33;;;;;20.94;51.71;101665.16;5079481;27;45342;-61
2022/07/11 06:26:01;;;;;;;;;6.00;6.00;;;;;21.04;51.68;101675.09;5079174;27;45164;-62
2022/07/11 06:28:27;;;;;;;;;4.67;4.67;;;;;21.07;51.31;101665.88;5079279;27;45476;-59
2022/07/11 06:30:52;;;;;;;;;6.33;5.33;;;;;21.11;51.77;101667.34;5078948;27;46294;-60
2022/07/11 06:33:21;;;;;;;;;5.00;5.00;;;;;21.20;51.13;101672.81;5078908;27;45477;-61
2022/07/11 06:35:47;;;;;;;;;2.67;2.67;;;;;21.28;51.35;101669.53;5079296;27;45447;-62
2022/07/11 06:38:16;;;;;;;;;5.33;5.33;;;;;21.30;51.08;101662.13;5078177;28;45366;-61
2022/07/11 06:40:42;;;;;;;;;4.33;4.33;;;;;21.43;51.24;101675.47;5077220;27;46070;-61
2022/07/11 06:43:09;;;;;;;;;5.33;5.00;;;;;21.46;50.59;101661.69;5078980;27;45939;-57
2022/07/11 06:45:34;;;;;;;;;4.00;4.00;;;;;21.37;50.90;101640.84;5077325;27;45380;-59
2022/07/11 06:48:00;;;;;;;;;6.00;4.00;;;;;21.58;50.72;101666.06;5079303;28;45326;-64
2022/07/11 06:50:26;;;;;;;;;4.67;4.67;;;;;21.65;50.46;101667.25;5079025;27;45450;-57
2022/07/11 06:52:51;;;;;;;;;4.33;4.33;;;;;21.69;50.75;101668.69;5078649;27;45264;-64
2022/07/11 06:55:17;;;;;;;;;4.33;3.00;;;;;21.74;50.10;101663.75;5079536;27;45420;-58
2022/07/11 06:57:42;;;;;;;;;7.33;6.00;;;;;21.78;50.42;101664.34;5079139;27;45435;-57
2022/07/11 07:00:08;;;;;;;;;6.33;5.67;;;;;21.86;50.24;101663.69;5077492;27;47489;-59
2022/07/11 07:02:35;;;;;;;;;6.00;6.00;;;;;21.90;49.65;101665.16;5078662;27;45345;-61
2022/07/11 07:05:01;;;;;;;;;3.00;3.00;;;;;21.93;49.88;101665.72;5078863;27;45280;-63
2022/07/11 07:07:28;;;;;;;;;4.00;4.00;;;;;21.97;50.04;101666.31;5078839;27;45659;-59
2022/07/11 07:09:54;;;;;;;;;3.00;3.00;;;;;22.02;49.58;101666.78;5078743;27;46344;-60
2022/07/11 07:12:21;;;;;;;;;4.67;2.67;;;;;22.03;49.11;101663.94;5078084;27;45320;-55
2022/07/11 07:14:46;;;;;;;;;4.00;4.00;;;;;22.11;49.20;101662.44;5078674;27;45400;-58
2022/07/11 07:17:14;;;;;;;;;6.00;5.00;;;;;22.17;48.97;101673.59;5079179;27;45415;-57
2022/07/11 07:19:40;;;;;;;;;4.00;4.00;;;;;22.16;49.30;101663.75;5078253;27;46151;-60
2022/07/11 07:22:05;;;;;;;;;6.00;6.00;;;;;22.24;48.90;101669.34;5078305;27;45381;-57
2022/07/11 07:24:31;;;;;;;;;4.00;4.00;;;;;22.29;48.93;101672.53;5078226;27;45251;-61
2022/07/11 07:26:57;;;;;;;;;5.00;4.00;;;;;22.35;48.66;101671.09;5078600;27;45179;-64
2022/07/11 07:29:22;;;;;;;;;4.00;4.00;;;;;22.36;48.67;101662.84;5077799;27;45482;-63
2022/07/11 07:31:49;;;;;;;;;4.00;4.00;;;;;22.43;48.86;101667.72;5078406;27;45880;-62
2022/07/11 07:34:14;;;;;;;;;5.67;5.00;;;;;22.47;48.31;101663.75;5078157;27;45452;-60
2022/07/11 07:36:40;;;;;;;;;3.00;3.00;;;;;22.49;48.61;101661.75;5078858;27;45336;-55
2022/07/11 07:39:05;;;;;;;;;4.00;4.00;;;;;22.50;48.25;101660.75;5078115;27;46179;-58
2022/07/11 07:41:30;;;;;;;;;4.50;3.50;;;;;22.61;48.26;101660.66;5077820;28;45360;-56
2022/07/11 07:43:56;;;;;;;;;4.00;4.00;;;;;22.65;47.68;101671.06;5078012;27;45275;-61
2022/07/11 07:46:21;;;;;;;;;3.25;3.25;;;;;22.69;47.63;101663.53;5078165;27;45552;-58
2022/07/11 07:48:47;;;;;;;;;6.00;4.67;;;;;22.68;47.65;101667.25;5077988;27;45497;-59
2022/07/11 07:51:12;;;;;;;;;5.00;5.00;;;;;22.77;47.40;101674.53;5077548;27;45493;-58
2022/07/11 07:53:38;;;;;;;;;6.00;5.75;;;;;22.73;46.87;101664.97;5077428;27;45954;-58
2022/07/11 07:56:04;;;;;;;;;4.25;4.00;;;;;22.84;47.08;101672.16;5078217;27;45481;-65
2022/07/11 07:58:30;;;;;;;;;3.75;3.75;;;;;22.87;47.03;101666.47;5077385;27;45374;-59
2022/07/11 08:03:39;;;;;;;;;12.33;11.00;;;;;22.98;46.92;101666.34;5077705;28;45403;-57
2022/07/11 08:06:05;;;;;;;;;5.50;4.50;;;;;23.03;46.56;101666.75;5077910;27;45317;-58
2022/07/11 08:08:30;;;;;;;;;6.25;5.75;;;;;23.06;47.00;101666.50;5076068;27;46708;-63
2022/07/11 08:10:56;;;;;;;;;4.00;4.00;;;;;23.09;46.59;101660.78;5077101;27;45271;-63
2022/07/11 08:13:21;;;;;;;;;5.50;5.50;;;;;22.95;47.12;101637.63;5077849;27;45294;-60
2022/07/11 08:15:47;;;;;;;;;4.00;4.00;;;;;23.18;46.90;101664.53;5077860;27;45202;-57
2022/07/11 08:18:13;;;;;;;;;6.00;5.67;;;;;23.24;46.99;101669.38;5077103;27;45301;-57
2022/07/11 08:20:38;;;;;;;;;5.00;5.00;;;;;23.24;46.89;101655.78;5077121;27;45286;-57
2022/07/11 08:23:04;;;;;;;;;4.00;4.00;;;;;23.29;46.63;101660.78;5076270;27;45434;-61
2022/07/11 08:25:32;;;;;;;;;4.50;4.50;;;;;23.38;46.33;101649.06;5077437;27;45294;-61
2022/07/11 08:27:58;;;;;;;;;3.75;3.75;;;;;23.56;45.88;101652.78;5075959;27;46873;-57
2022/07/11 08:30:25;;;;;;;;;3.75;3.75;;;;;23.82;46.00;101643.03;5077791;28;45363;-64
2022/07/11 08:32:50;;;;;;;;;3.00;3.00;;;;;24.30;44.41;101641.22;5077711;27;45341;-63
2022/07/11 08:35:16;;;;;;;;;4.50;4.50;;;;;24.85;43.66;101630.31;5077312;27;45553;-57
2022/07/11 08:37:42;;;;;;;;;3.25;3.25;;;;;25.44;43.02;101615.25;5076984;27;46198;-59
2022/07/11 08:40:08;;;;;;;;;2.50;2.50;;;;;26.01;41.71;101623.84;5077086;27;45244;-60
2022/07/11 08:42:41;;;;;;;;;2.50;2.50;;;;;26.52;39.97;101616.63;5077296;27;45452;-58
2022/07/11 08:45:11;;;;;;;;;2.25;2.25;;;;;27.02;40.27;101620.19;5076953;28;45374;-58
2022/07/11 08:47:37;;;;;;;;;2.80;2.80;;;;;27.44;37.98;101611.00;5076519;27;45743;-58
2022/07/11 08:50:03;;;;;;;;;3.75;3.75;;;;;27.91;38.15;101626.69;5075439;27;45390;-59
2022/07/11 08:52:28;;;;;;;;;2.00;2.00;;;;;28.26;36.34;101613.59;5077016;27;45362;-59
2022/07/11 08:54:55;;;;;;;;;4.25;4.25;;;;;28.64;37.63;101604.53;5077502;27;45513;-59
2022/07/11 08:57:20;;;;;;;;;4.60;4.60;;;;;29.03;35.25;101609.13;5076074;28;46328;-60
2022/07/11 08:59:48;;;;;;;;;3.75;3.75;;;;;29.31;35.36;101621.25;5076868;27;45208;-62
2022/07/11 09:02:13;;;;;;;;;3.60;3.00;;;;;29.69;34.85;101609.44;5077024;27;45312;-61
2022/07/11 09:04:39;;;;;;;;;4.75;2.00;;;;;30.04;34.49;101607.88;5076941;27;45485;-58
2022/07/11 09:07:06;;;;;;;;;3.00;3.00;;;;;30.44;33.60;101609.31;5076681;27;46131;-63
2022/07/11 09:09:31;;;;;;;;;4.00;3.00;;;;;30.86;33.42;101605.81;5076776;27;45386;-63
2022/07/11 09:11:58;;;;;;;;;3.00;2.00;;;;;31.16;31.18;101605.72;5075467;28;45459;-62
2022/07/11 09:14:31;;;;;;;;;3.60;3.60;;;;;31.47;31.60;101610.88;5077053;27;45539;-60
2022/07/11 09:17:04;;;;;;;;;2.20;2.20;;;;;31.82;32.87;101600.84;5075314;27;45419;-63
2022/07/11 09:19:37;;;;;;;;;5.60;5.60;;;;;32.05;30.83;101609.66;5076512;27;45397;-63
2022/07/11 09:25:31;;;;;;;;;3.00;3.00;;;;;32.15;30.05;101590.00;5079216;28;45348;-64
2022/07/11 09:28:04;;;;;;;;;2.60;2.60;;;;;32.39;30.00;101599.69;5078348;27;47263;-58
2022/07/11 09:30:43;;;;;;;;;3.20;3.20;;;;;32.67;30.89;101583.91;5076179;27;45361;-62
2022/07/11 09:33:12;;;;;;;;;3.40;3.00;;;;;32.80;29.35;101589.44;5076893;27;45270;-64
2022/07/11 09:35:41;;;;;;;;;1.00;1.00;;;;;32.97;29.06;101584.44;5075281;27;45322;-63
2022/07/11 09:38:12;;;;;;;;;2.20;2.00;;;;;33.18;29.22;101585.28;5076271;27;46253;-61
2022/07/11 09:40:42;;;;;;;;;3.80;2.00;;;;;33.39;28.72;101588.75;5076016;27;45225;-59
2022/07/11 09:43:07;;;;;;;;;3.00;3.00;;;;;33.65;28.34;101592.53;5076625;27;45442;-56
2022/07/11 09:45:35;;;;;;;;;2.50;2.50;;;;;33.69;28.63;101580.84;5076327;27;45389;-60
2022/07/11 09:48:09;;;;;;;;;2.60;2.60;;;;;33.87;27.56;101591.28;5076144;27;45473;-59
2022/07/11 09:50:34;;;;;;;;;3.00;3.00;;;;;34.08;28.06;101581.88;5077211;27;45255;-60
2022/07/11 09:53:04;;;;;;;;;2.00;2.00;;;;;34.42;27.94;101586.25;5075684;28;45365;-64
2022/07/11 09:55:32;;;;;;;;;2.80;2.80;;;;;34.58;27.83;101585.72;5076817;27;45361;-60
2022/07/11 09:57:57;;;;;;;;;2.00;2.00;;;;;34.64;27.74;101585.91;5076458;27;45448;-62
2022/07/11 10:00:23;;;;;;;;;4.50;3.25;;;;;34.56;27.60;101576.81;5076314;27;45434;-61
2022/07/11 10:02:50;;;;;;;;;2.00;2.00;;;;;34.73;26.85;101562.47;5076173;27;45393;-58
2022/07/11 10:05:15;;;;;;;;;4.00;4.00;;;;;34.87;27.68;101581.53;5076145;27;45234;-56
2022/07/11 10:07:40;;;;;;;;;4.75;4.75;;;;;35.00;25.96;101586.13;5075560;27;45658;-59
2022/07/11 10:10:07;;;;;;;;;2.00;2.00;;;;;34.98;26.59;101568.94;5076059;27;45227;-60
2022/07/11 10:12:33;;;;;;;;;2.00;2.00;;;;;35.08;26.46;101583.09;5076119;27;45485;-63
2022/07/11 10:15:06;;;;;;;;;2.00;2.00;;;;;35.02;26.03;101580.38;5076423;27;45564;-58
2022/07/11 10:18:02;;;;;;;;;1.20;1.20;;;;;34.73;26.70;101585.44;5075633;27;47128;-57
2022/07/11 10:20:58;;;;;;;;;2.40;2.40;;;;;34.47;26.26;101585.56;5076833;27;45296;-62
2022/07/11 10:23:39;;;;;;;;;1.80;1.80;;;;;34.36;27.11;101584.31;5076043;27;45367;-60
2022/07/11 10:26:30;;;;;;;;;3.00;1.00;;;;;34.36;26.28;101594.50;5076161;27;45515;-57
2022/07/11 10:29:05;;;;;;;;;3.20;0.20;;;;;34.05;26.93;101592.50;5075796;27;46254;-62
2022/07/11 10:31:31;;;;;;;;;1.80;1.80;;;;;33.74;27.34;101585.75;5075591;27;45456;-56
2022/07/11 10:34:15;;;;;;;;;4.25;1.25;;;;;33.35;27.29;101581.13;5076063;27;45433;-61
2022/07/11 10:36:41;;;;;;;;;1.60;1.60;;;;;32.86;28.32;101579.53;5076209;28;45466;-58
2022/07/11 10:39:18;;;;;;;;;2.00;2.00;;;;;32.31;29.24;101588.88;5075650;27;45875;-60
2022/07/11 10:41:45;;;;;;;;;2.60;1.80;;;;;32.00;29.35;101587.38;5073001;28;45422;-63
2022/07/11 10:44:11;;;;;;;;;1.60;1.60;;;;;31.71;29.55;101582.94;5075476;27;45496;-63
2022/07/11 10:46:37;;;;;;;;;1.00;1.00;;;;;31.41;29.56;101585.06;5077445;28;45552;-60
2022/07/11 10:49:20;;;;;;;;;2.50;1.00;;;;;31.10;29.99;101591.69;5079256;27;45347;-58
2022/07/11 10:52:02;;;;;;;;;3.00;1.60;;;;;30.78;30.61;101586.72;5078756;27;45392;-59
2022/07/11 10:54:51;;;;;;;;;1.80;1.80;;;;;30.46;31.44;101577.88;5079615;27;45428;-61
2022/07/11 10:57:27;;;;;;;;;1.00;1.00;;;;;30.24;31.87;101584.38;5079401;27;45463;-57
2022/07/11 10:59:59;;;;;;;;;1.20;1.20;;;;;29.95;32.19;101588.78;5078722;27;46171;-59
2022/07/11 11:02:25;;;;;;;;;2.00;1.40;;;;;29.85;32.23;101585.47;5078910;27;45363;-61
2022/07/11 11:04:59;;;;;;;;;2.00;2.00;;;;;29.70;32.28;101592.84;5078905;27;45512;-60
2022/07/11 11:07:36;;;;;;;;;2.80;1.80;;;;;29.53;32.74;101580.31;5078675;27;45409;-56
2022/07/11 11:10:17;;;;;;;;;1.20;1.20;;;;;29.50;33.24;101586.19;5078485;27;46523;-61
2022/07/11 11:13:04;;;;;;;;;1.00;1.00;;;;;29.13;33.34;101554.97;5077210;27;45329;-59
2022/07/11 11:15:39;;;;;;;;;4.20;4.00;;;;;29.14;33.90;101575.84;5077899;27;45343;-61
2022/07/11 11:18:25;;;;;;;;;3.40;2.00;;;;;29.16;33.56;101570.16;5078901;27;45302;-61
2022/07/11 11:20:59;;;;;;;;;3.00;1.00;;;;;29.15;33.79;101577.53;5077044;28;46461;-61
2022/07/11 11:23:27;;;;;;;;;1.40;1.40;;;;;29.13;34.00;101560.44;5078520;27;45344;-62
2022/07/11 11:25:53;;;;;;;;;1.40;1.00;;;;;29.12;33.89;101556.00;5078700;27;45386;-61
2022/07/11 11:28:22;;;;;;;;;3.00;2.00;;;;;29.14;33.82;101567.63;5078628;27;45237;-57
2022/07/11 11:30:58;;;;;;;;;2.40;2.40;;;;;29.15;33.53;101558.34;5077915;27;46462;-62